sensor_id;sensor_type;location;lat;lon;timestamp;P1;durP1;ratioP1;P2;durP2;ratioP2
81378;SDS011;70830;42.290;-71.354;2023-09-30T00:02:14;51.58;;;25.48;;
81378;SDS011;70830;42.290;-71.354;2023-09-30T00:04:40;46.65;;;26.05;;
81378;SDS011;70830;42.290;-71.354;2023-09-30T00:07:06;46.67;;;23.15;;
81378;SDS011;70830;42.290;-71.354;2023-09-30T00:09:33;46.05;;;23.45;;
81378;SDS011;70830;42.290;-71.354;2023-09-30T00:11:59;45.35;;;23.02;;
81378;SDS011;70830;42.290;-71.354;2023-09-30T00:14:25;44.67;;;22.75;;
81378;SDS011;70830;42.290;-71.354;2023-09-30T00:16:51;39.80;;;21.45;;
81378;SDS011;70830;42.290;-71.354;2023-09-30T00:19:17;41.17;;;21.45;;
81378;SDS011;70830;42.290;-71.354;2023-09-30T00:21:42;46.20;;;22.63;;
81378;SDS011;70830;42.290;-71.354;2023-09-30T00:24:08;45.95;;;21.48;;
81378;SDS011;70830;42.290;-71.354;2023-09-30T00:26:34;45.85;;;22.38;;
81378;SDS011;70830;42.290;-71.354;2023-09-30T00:29:01;41.72;;;23.17;;
81378;SDS011;70830;42.290;-71.354;2023-09-30T00:31:30;50.85;;;23.42;;
81378;SDS011;70830;42.290;-71.354;2023-09-30T00:33:57;45.80;;;22.35;;
81378;SDS011;70830;42.290;-71.354;2023-09-30T00:36:23;44.35;;;23.90;;
81378;SDS011;70830;42.290;-71.354;2023-09-30T00:38:49;45.63;;;22.80;;
81378;SDS011;70830;42.290;-71.354;2023-09-30T00:41:14;50.15;;;21.48;;
81378;SDS011;70830;42.290;-71.354;2023-09-30T00:43:40;39.17;;;20.85;;
81378;SDS011;70830;42.290;-71.354;2023-09-30T00:48:53;48.15;;;22.77;;
81378;SDS011;70830;42.290;-71.354;2023-09-30T00:51:19;44.22;;;22.23;;
81378;SDS011;70830;42.290;-71.354;2023-09-30T00:53:46;40.20;;;20.75;;
81378;SDS011;70830;42.290;-71.354;2023-09-30T00:56:12;42.65;;;22.48;;
81378;SDS011;70830;42.290;-71.354;2023-09-30T00:58:39;39.80;;;20.98;;
81378;SDS011;70830;42.290;-71.354;2023-09-30T01:01:05;41.78;;;21.15;;
81378;SDS011;70830;42.290;-71.354;2023-09-30T01:03:31;45.28;;;21.92;;
81378;SDS011;70830;42.290;-71.354;2023-09-30T01:05:58;42.17;;;21.85;;
81378;SDS011;70830;42.290;-71.354;2023-09-30T01:08:23;39.28;;;19.45;;
81378;SDS011;70830;42.290;-71.354;2023-09-30T01:10:51;41.30;;;19.80;;
81378;SDS011;70830;42.290;-71.354;2023-09-30T01:13:17;42.00;;;21.35;;
81378;SDS011;70830;42.290;-71.354;2023-09-30T01:15:42;47.17;;;20.52;;
81378;SDS011;70830;42.290;-71.354;2023-09-30T01:18:08;39.72;;;20.52;;
81378;SDS011;70830;42.290;-71.354;2023-09-30T01:20:34;35.85;;;19.35;;
81378;SDS011;70830;42.290;-71.354;2023-09-30T01:23:01;42.63;;;19.55;;
81378;SDS011;70830;42.290;-71.354;2023-09-30T01:25:28;39.72;;;21.30;;
81378;SDS011;70830;42.290;-71.354;2023-09-30T01:27:55;40.13;;;21.63;;
81378;SDS011;70830;42.290;-71.354;2023-09-30T01:30:21;38.28;;;19.58;;
81378;SDS011;70830;42.290;-71.354;2023-09-30T01:32:48;41.20;;;19.42;;
81378;SDS011;70830;42.290;-71.354;2023-09-30T01:35:14;39.13;;;19.80;;
81378;SDS011;70830;42.290;-71.354;2023-09-30T01:37:40;40.88;;;19.00;;
81378;SDS011;70830;42.290;-71.354;2023-09-30T01:40:06;44.30;;;20.35;;
81378;SDS011;70830;42.290;-71.354;2023-09-30T01:42:36;42.40;;;21.45;;
81378;SDS011;70830;42.290;-71.354;2023-09-30T01:45:02;37.65;;;19.48;;
81378;SDS011;70830;42.290;-71.354;2023-09-30T01:47:28;35.70;;;19.85;;
81378;SDS011;70830;42.290;-71.354;2023-09-30T01:49:54;38.20;;;20.40;;
81378;SDS011;70830;42.290;-71.354;2023-09-30T01:52:19;35.97;;;19.88;;
81378;SDS011;70830;42.290;-71.354;2023-09-30T01:54:45;39.60;;;21.25;;
81378;SDS011;70830;42.290;-71.354;2023-09-30T01:57:11;40.45;;;20.48;;
81378;SDS011;70830;42.290;-71.354;2023-09-30T01:59:37;42.33;;;20.90;;
81378;SDS011;70830;42.290;-71.354;2023-09-30T02:02:04;43.85;;;21.33;;
81378;SDS011;70830;42.290;-71.354;2023-09-30T02:04:30;34.22;;;19.95;;
81378;SDS011;70830;42.290;-71.354;2023-09-30T02:06:56;37.40;;;21.70;;
81378;SDS011;70830;42.290;-71.354;2023-09-30T02:09:22;41.92;;;20.77;;
81378;SDS011;70830;42.290;-71.354;2023-09-30T02:11:47;38.63;;;21.15;;
81378;SDS011;70830;42.290;-71.354;2023-09-30T02:14:13;40.83;;;22.02;;
81378;SDS011;70830;42.290;-71.354;2023-09-30T02:16:39;42.42;;;21.95;;
81378;SDS011;70830;42.290;-71.354;2023-09-30T02:19:05;42.40;;;21.88;;
81378;SDS011;70830;42.290;-71.354;2023-09-30T02:21:33;43.10;;;21.42;;
81378;SDS011;70830;42.290;-71.354;2023-09-30T02:24:00;46.90;;;21.17;;
81378;SDS011;70830;42.290;-71.354;2023-09-30T02:26:26;41.08;;;22.08;;
81378;SDS011;70830;42.290;-71.354;2023-09-30T02:28:54;43.47;;;23.05;;
81378;SDS011;70830;42.290;-71.354;2023-09-30T02:31:20;45.63;;;22.02;;
81378;SDS011;70830;42.290;-71.354;2023-09-30T02:33:45;43.03;;;22.00;;
81378;SDS011;70830;42.290;-71.354;2023-09-30T02:36:12;47.13;;;22.48;;
81378;SDS011;70830;42.290;-71.354;2023-09-30T02:38:38;38.35;;;21.10;;
81378;SDS011;70830;42.290;-71.354;2023-09-30T02:41:04;40.25;;;20.50;;
81378;SDS011;70830;42.290;-71.354;2023-09-30T02:43:30;41.95;;;22.33;;
81378;SDS011;70830;42.290;-71.354;2023-09-30T02:45:56;41.58;;;22.23;;
81378;SDS011;70830;42.290;-71.354;2023-09-30T02:48:22;39.30;;;21.25;;
81378;SDS011;70830;42.290;-71.354;2023-09-30T02:50:48;39.65;;;20.77;;
81378;SDS011;70830;42.290;-71.354;2023-09-30T02:53:14;40.40;;;21.48;;
81378;SDS011;70830;42.290;-71.354;2023-09-30T02:55:42;38.65;;;20.63;;
81378;SDS011;70830;42.290;-71.354;2023-09-30T02:58:08;38.85;;;21.63;;
81378;SDS011;70830;42.290;-71.354;2023-09-30T03:00:35;38.78;;;21.05;;
81378;SDS011;70830;42.290;-71.354;2023-09-30T03:03:03;39.38;;;21.55;;
81378;SDS011;70830;42.290;-71.354;2023-09-30T03:05:30;42.42;;;21.25;;
81378;SDS011;70830;42.290;-71.354;2023-09-30T03:07:58;33.45;;;19.40;;
81378;SDS011;70830;42.290;-71.354;2023-09-30T03:10:26;42.30;;;23.02;;
81378;SDS011;70830;42.290;-71.354;2023-09-30T03:12:52;39.25;;;19.48;;
81378;SDS011;70830;42.290;-71.354;2023-09-30T03:15:19;43.55;;;22.20;;
81378;SDS011;70830;42.290;-71.354;2023-09-30T03:17:45;39.88;;;21.90;;
81378;SDS011;70830;42.290;-71.354;2023-09-30T03:20:11;38.28;;;21.92;;
81378;SDS011;70830;42.290;-71.354;2023-09-30T03:22:40;40.25;;;21.10;;
81378;SDS011;70830;42.290;-71.354;2023-09-30T03:25:08;38.85;;;19.98;;
81378;SDS011;70830;42.290;-71.354;2023-09-30T03:27:37;39.60;;;20.52;;
81378;SDS011;70830;42.290;-71.354;2023-09-30T03:30:07;39.40;;;20.92;;
81378;SDS011;70830;42.290;-71.354;2023-09-30T03:32:34;38.15;;;20.70;;
81378;SDS011;70830;42.290;-71.354;2023-09-30T03:35:06;40.17;;;21.05;;
81378;SDS011;70830;42.290;-71.354;2023-09-30T03:37:33;36.78;;;21.27;;
81378;SDS011;70830;42.290;-71.354;2023-09-30T03:39:59;40.75;;;22.17;;
81378;SDS011;70830;42.290;-71.354;2023-09-30T03:42:37;37.38;;;20.10;;
81378;SDS011;70830;42.290;-71.354;2023-09-30T03:45:05;44.03;;;20.58;;
81378;SDS011;70830;42.290;-71.354;2023-09-30T03:47:35;45.47;;;22.08;;
81378;SDS011;70830;42.290;-71.354;2023-09-30T03:50:02;36.13;;;19.98;;
81378;SDS011;70830;42.290;-71.354;2023-09-30T03:52:30;39.55;;;21.33;;
81378;SDS011;70830;42.290;-71.354;2023-09-30T03:54:59;43.33;;;19.58;;
81378;SDS011;70830;42.290;-71.354;2023-09-30T03:57:33;43.88;;;20.70;;
81378;SDS011;70830;42.290;-71.354;2023-09-30T04:00:01;42.60;;;22.35;;
81378;SDS011;70830;42.290;-71.354;2023-09-30T04:02:31;40.53;;;21.35;;
81378;SDS011;70830;42.290;-71.354;2023-09-30T04:04:57;41.45;;;20.83;;
81378;SDS011;70830;42.290;-71.354;2023-09-30T04:07:24;46.83;;;22.52;;
81378;SDS011;70830;42.290;-71.354;2023-09-30T04:09:54;42.40;;;21.63;;
81378;SDS011;70830;42.290;-71.354;2023-09-30T04:12:21;41.78;;;21.23;;
81378;SDS011;70830;42.290;-71.354;2023-09-30T04:14:51;37.33;;;20.95;;
81378;SDS011;70830;42.290;-71.354;2023-09-30T04:17:18;36.70;;;19.58;;
81378;SDS011;70830;42.290;-71.354;2023-09-30T04:19:44;37.10;;;20.67;;
81378;SDS011;70830;42.290;-71.354;2023-09-30T04:22:11;44.45;;;21.73;;
81378;SDS011;70830;42.290;-71.354;2023-09-30T04:24:38;36.97;;;20.02;;
81378;SDS011;70830;42.290;-71.354;2023-09-30T04:27:04;45.53;;;22.00;;
81378;SDS011;70830;42.290;-71.354;2023-09-30T04:29:32;37.88;;;20.40;;
81378;SDS011;70830;42.290;-71.354;2023-09-30T04:31:59;42.95;;;22.30;;
81378;SDS011;70830;42.290;-71.354;2023-09-30T04:34:25;49.08;;;21.73;;
81378;SDS011;70830;42.290;-71.354;2023-09-30T04:36:53;41.35;;;20.52;;
81378;SDS011;70830;42.290;-71.354;2023-09-30T04:39:19;41.65;;;21.33;;
81378;SDS011;70830;42.290;-71.354;2023-09-30T04:41:45;37.65;;;21.45;;
81378;SDS011;70830;42.290;-71.354;2023-09-30T04:44:12;42.60;;;21.75;;
81378;SDS011;70830;42.290;-71.354;2023-09-30T04:46:38;35.25;;;21.27;;
81378;SDS011;70830;42.290;-71.354;2023-09-30T04:49:11;42.90;;;20.70;;
81378;SDS011;70830;42.290;-71.354;2023-09-30T04:51:40;47.20;;;21.52;;
81378;SDS011;70830;42.290;-71.354;2023-09-30T04:54:06;41.83;;;20.33;;
81378;SDS011;70830;42.290;-71.354;2023-09-30T04:56:36;38.35;;;19.20;;
81378;SDS011;70830;42.290;-71.354;2023-09-30T04:59:04;40.05;;;20.08;;
81378;SDS011;70830;42.290;-71.354;2023-09-30T05:01:29;35.85;;;19.20;;
81378;SDS011;70830;42.290;-71.354;2023-09-30T05:03:55;40.28;;;21.90;;
81378;SDS011;70830;42.290;-71.354;2023-09-30T05:06:22;40.13;;;21.02;;
81378;SDS011;70830;42.290;-71.354;2023-09-30T05:08:48;34.20;;;19.63;;
81378;SDS011;70830;42.290;-71.354;2023-09-30T05:11:15;39.55;;;21.40;;
81378;SDS011;70830;42.290;-71.354;2023-09-30T05:13:41;39.90;;;19.48;;
81378;SDS011;70830;42.290;-71.354;2023-09-30T05:16:07;34.72;;;20.30;;
81378;SDS011;70830;42.290;-71.354;2023-09-30T05:18:33;35.20;;;19.95;;
81378;SDS011;70830;42.290;-71.354;2023-09-30T05:20:59;36.17;;;20.55;;
81378;SDS011;70830;42.290;-71.354;2023-09-30T05:23:25;40.35;;;20.45;;
81378;SDS011;70830;42.290;-71.354;2023-09-30T05:25:51;38.65;;;19.98;;
81378;SDS011;70830;42.290;-71.354;2023-09-30T05:28:19;40.03;;;19.83;;
81378;SDS011;70830;42.290;-71.354;2023-09-30T05:30:46;38.55;;;20.05;;
81378;SDS011;70830;42.290;-71.354;2023-09-30T05:33:12;47.75;;;21.60;;
81378;SDS011;70830;42.290;-71.354;2023-09-30T05:35:40;42.10;;;20.35;;
81378;SDS011;70830;42.290;-71.354;2023-09-30T05:38:09;34.20;;;19.85;;
81378;SDS011;70830;42.290;-71.354;2023-09-30T05:40:35;43.35;;;21.40;;
81378;SDS011;70830;42.290;-71.354;2023-09-30T05:43:01;37.15;;;19.88;;
81378;SDS011;70830;42.290;-71.354;2023-09-30T05:45:30;41.67;;;21.17;;
81378;SDS011;70830;42.290;-71.354;2023-09-30T05:48:00;45.85;;;22.55;;
81378;SDS011;70830;42.290;-71.354;2023-09-30T05:50:29;43.50;;;21.05;;
81378;SDS011;70830;42.290;-71.354;2023-09-30T05:52:57;48.35;;;21.20;;
81378;SDS011;70830;42.290;-71.354;2023-09-30T05:55:23;49.42;;;20.92;;
81378;SDS011;70830;42.290;-71.354;2023-09-30T05:57:50;49.92;;;22.67;;
81378;SDS011;70830;42.290;-71.354;2023-09-30T06:00:20;37.47;;;20.10;;
81378;SDS011;70830;42.290;-71.354;2023-09-30T06:02:48;36.30;;;20.02;;
81378;SDS011;70830;42.290;-71.354;2023-09-30T06:05:15;37.15;;;20.67;;
81378;SDS011;70830;42.290;-71.354;2023-09-30T06:07:51;36.80;;;20.02;;
81378;SDS011;70830;42.290;-71.354;2023-09-30T06:10:17;38.83;;;22.58;;
81378;SDS011;70830;42.290;-71.354;2023-09-30T06:12:46;41.95;;;22.00;;
81378;SDS011;70830;42.290;-71.354;2023-09-30T06:15:13;39.70;;;21.02;;
81378;SDS011;70830;42.290;-71.354;2023-09-30T06:17:41;36.53;;;22.58;;
81378;SDS011;70830;42.290;-71.354;2023-09-30T06:20:07;41.70;;;21.35;;
81378;SDS011;70830;42.290;-71.354;2023-09-30T06:22:41;38.92;;;21.48;;
81378;SDS011;70830;42.290;-71.354;2023-09-30T06:25:09;37.65;;;21.85;;
81378;SDS011;70830;42.290;-71.354;2023-09-30T06:27:35;35.75;;;21.58;;
81378;SDS011;70830;42.290;-71.354;2023-09-30T06:30:01;37.08;;;20.67;;
81378;SDS011;70830;42.290;-71.354;2023-09-30T06:32:27;38.05;;;21.27;;
81378;SDS011;70830;42.290;-71.354;2023-09-30T06:34:52;37.17;;;19.77;;
81378;SDS011;70830;42.290;-71.354;2023-09-30T06:37:18;33.85;;;18.75;;
81378;SDS011;70830;42.290;-71.354;2023-09-30T06:39:45;37.83;;;21.73;;
81378;SDS011;70830;42.290;-71.354;2023-09-30T06:42:10;34.70;;;19.20;;
81378;SDS011;70830;42.290;-71.354;2023-09-30T06:44:36;37.80;;;21.25;;
81378;SDS011;70830;42.290;-71.354;2023-09-30T06:47:02;38.78;;;19.55;;
81378;SDS011;70830;42.290;-71.354;2023-09-30T06:49:28;37.55;;;20.70;;
81378;SDS011;70830;42.290;-71.354;2023-09-30T06:51:54;36.17;;;19.80;;
81378;SDS011;70830;42.290;-71.354;2023-09-30T06:54:20;36.72;;;20.42;;
81378;SDS011;70830;42.290;-71.354;2023-09-30T06:56:46;35.40;;;19.73;;
81378;SDS011;70830;42.290;-71.354;2023-09-30T06:59:12;36.03;;;20.38;;
81378;SDS011;70830;42.290;-71.354;2023-09-30T07:01:37;35.63;;;19.75;;
81378;SDS011;70830;42.290;-71.354;2023-09-30T07:04:04;36.15;;;19.73;;
81378;SDS011;70830;42.290;-71.354;2023-09-30T07:06:31;38.83;;;20.27;;
81378;SDS011;70830;42.290;-71.354;2023-09-30T07:08:57;35.45;;;18.83;;
81378;SDS011;70830;42.290;-71.354;2023-09-30T07:11:29;35.10;;;19.75;;
81378;SDS011;70830;42.290;-71.354;2023-09-30T07:13:59;36.95;;;19.50;;
81378;SDS011;70830;42.290;-71.354;2023-09-30T07:16:25;37.55;;;20.75;;
81378;SDS011;70830;42.290;-71.354;2023-09-30T07:18:51;36.13;;;19.27;;
81378;SDS011;70830;42.290;-71.354;2023-09-30T07:21:17;32.00;;;18.85;;
81378;SDS011;70830;42.290;-71.354;2023-09-30T07:23:43;37.03;;;21.17;;
81378;SDS011;70830;42.290;-71.354;2023-09-30T07:26:09;36.92;;;19.33;;
81378;SDS011;70830;42.290;-71.354;2023-09-30T07:28:35;36.22;;;19.35;;
81378;SDS011;70830;42.290;-71.354;2023-09-30T07:31:01;39.97;;;19.05;;
81378;SDS011;70830;42.290;-71.354;2023-09-30T07:33:27;35.78;;;18.10;;
81378;SDS011;70830;42.290;-71.354;2023-09-30T07:35:54;33.53;;;17.95;;
81378;SDS011;70830;42.290;-71.354;2023-09-30T07:38:21;37.95;;;18.67;;
81378;SDS011;70830;42.290;-71.354;2023-09-30T07:40:47;35.03;;;18.85;;
81378;SDS011;70830;42.290;-71.354;2023-09-30T07:43:14;27.77;;;16.35;;
81378;SDS011;70830;42.290;-71.354;2023-09-30T07:45:40;33.40;;;18.70;;
81378;SDS011;70830;42.290;-71.354;2023-09-30T07:48:08;35.45;;;18.77;;
81378;SDS011;70830;42.290;-71.354;2023-09-30T07:50:38;33.85;;;17.65;;
81378;SDS011;70830;42.290;-71.354;2023-09-30T07:53:04;35.35;;;17.45;;
81378;SDS011;70830;42.290;-71.354;2023-09-30T07:55:30;39.55;;;19.20;;
81378;SDS011;70830;42.290;-71.354;2023-09-30T07:57:56;36.05;;;19.00;;
81378;SDS011;70830;42.290;-71.354;2023-09-30T08:00:24;34.88;;;18.77;;
81378;SDS011;70830;42.290;-71.354;2023-09-30T08:02:50;32.25;;;17.55;;
81378;SDS011;70830;42.290;-71.354;2023-09-30T08:05:16;34.13;;;17.13;;
81378;SDS011;70830;42.290;-71.354;2023-09-30T08:07:42;38.00;;;17.63;;
81378;SDS011;70830;42.290;-71.354;2023-09-30T08:10:08;35.78;;;18.75;;
81378;SDS011;70830;42.290;-71.354;2023-09-30T08:12:39;37.10;;;18.13;;
81378;SDS011;70830;42.290;-71.354;2023-09-30T08:15:06;40.65;;;17.65;;
81378;SDS011;70830;42.290;-71.354;2023-09-30T08:17:32;30.95;;;17.58;;
81378;SDS011;70830;42.290;-71.354;2023-09-30T08:19:59;35.53;;;17.92;;
81378;SDS011;70830;42.290;-71.354;2023-09-30T08:22:25;34.65;;;16.67;;
81378;SDS011;70830;42.290;-71.354;2023-09-30T08:24:53;32.92;;;17.67;;
81378;SDS011;70830;42.290;-71.354;2023-09-30T08:27:19;35.03;;;17.17;;
81378;SDS011;70830;42.290;-71.354;2023-09-30T08:29:45;34.55;;;17.00;;
81378;SDS011;70830;42.290;-71.354;2023-09-30T08:32:11;32.53;;;16.85;;
81378;SDS011;70830;42.290;-71.354;2023-09-30T08:34:37;36.85;;;18.15;;
81378;SDS011;70830;42.290;-71.354;2023-09-30T08:37:04;33.25;;;16.55;;
81378;SDS011;70830;42.290;-71.354;2023-09-30T08:39:30;26.13;;;16.08;;
81378;SDS011;70830;42.290;-71.354;2023-09-30T08:41:56;42.00;;;18.15;;
81378;SDS011;70830;42.290;-71.354;2023-09-30T08:44:22;32.45;;;17.35;;
81378;SDS011;70830;42.290;-71.354;2023-09-30T08:46:47;28.48;;;17.42;;
81378;SDS011;70830;42.290;-71.354;2023-09-30T08:49:15;32.13;;;18.05;;
81378;SDS011;70830;42.290;-71.354;2023-09-30T08:51:43;34.90;;;18.30;;
81378;SDS011;70830;42.290;-71.354;2023-09-30T08:54:10;34.83;;;19.58;;
81378;SDS011;70830;42.290;-71.354;2023-09-30T08:56:36;32.58;;;18.88;;
81378;SDS011;70830;42.290;-71.354;2023-09-30T08:59:05;34.78;;;18.80;;
81378;SDS011;70830;42.290;-71.354;2023-09-30T09:01:31;35.22;;;17.90;;
81378;SDS011;70830;42.290;-71.354;2023-09-30T09:03:57;30.48;;;18.23;;
81378;SDS011;70830;42.290;-71.354;2023-09-30T09:06:24;34.22;;;19.33;;
81378;SDS011;70830;42.290;-71.354;2023-09-30T09:08:51;36.60;;;18.95;;
81378;SDS011;70830;42.290;-71.354;2023-09-30T09:11:18;32.70;;;18.48;;
81378;SDS011;70830;42.290;-71.354;2023-09-30T09:13:48;36.75;;;19.40;;
81378;SDS011;70830;42.290;-71.354;2023-09-30T09:16:21;36.03;;;19.20;;
81378;SDS011;70830;42.290;-71.354;2023-09-30T09:18:48;34.83;;;19.88;;
81378;SDS011;70830;42.290;-71.354;2023-09-30T09:21:16;37.67;;;19.70;;
81378;SDS011;70830;42.290;-71.354;2023-09-30T09:23:48;35.70;;;19.60;;
81378;SDS011;70830;42.290;-71.354;2023-09-30T09:28:58;35.50;;;20.85;;
81378;SDS011;70830;42.290;-71.354;2023-09-30T09:31:27;38.83;;;20.73;;
81378;SDS011;70830;42.290;-71.354;2023-09-30T09:33:54;31.77;;;19.63;;
81378;SDS011;70830;42.290;-71.354;2023-09-30T09:36:20;34.92;;;19.17;;
81378;SDS011;70830;42.290;-71.354;2023-09-30T09:39:03;31.50;;;17.83;;
81378;SDS011;70830;42.290;-71.354;2023-09-30T09:41:29;34.75;;;20.27;;
81378;SDS011;70830;42.290;-71.354;2023-09-30T09:43:54;40.20;;;20.02;;
81378;SDS011;70830;42.290;-71.354;2023-09-30T09:46:24;36.42;;;19.25;;
81378;SDS011;70830;42.290;-71.354;2023-09-30T09:48:52;36.60;;;19.48;;
81378;SDS011;70830;42.290;-71.354;2023-09-30T09:51:20;32.90;;;19.02;;
81378;SDS011;70830;42.290;-71.354;2023-09-30T09:53:46;36.30;;;18.48;;
81378;SDS011;70830;42.290;-71.354;2023-09-30T09:56:15;37.60;;;19.10;;
81378;SDS011;70830;42.290;-71.354;2023-09-30T09:58:42;33.97;;;19.63;;
81378;SDS011;70830;42.290;-71.354;2023-09-30T10:01:09;34.45;;;19.08;;
81378;SDS011;70830;42.290;-71.354;2023-09-30T10:03:36;39.47;;;18.90;;
81378;SDS011;70830;42.290;-71.354;2023-09-30T10:06:03;33.13;;;18.55;;
81378;SDS011;70830;42.290;-71.354;2023-09-30T10:08:51;32.95;;;18.20;;
81378;SDS011;70830;42.290;-71.354;2023-09-30T10:11:20;39.95;;;19.02;;
81378;SDS011;70830;42.290;-71.354;2023-09-30T10:13:54;38.42;;;21.10;;
81378;SDS011;70830;42.290;-71.354;2023-09-30T10:16:50;35.08;;;18.38;;
81378;SDS011;70830;42.290;-71.354;2023-09-30T10:19:16;38.45;;;19.02;;
81378;SDS011;70830;42.290;-71.354;2023-09-30T10:24:43;36.88;;;18.98;;
81378;SDS011;70830;42.290;-71.354;2023-09-30T10:29:47;35.28;;;19.80;;
81378;SDS011;70830;42.290;-71.354;2023-09-30T10:32:14;28.13;;;16.63;;
81378;SDS011;70830;42.290;-71.354;2023-09-30T10:34:50;34.33;;;17.98;;
81378;SDS011;70830;42.290;-71.354;2023-09-30T10:37:21;36.22;;;18.23;;
81378;SDS011;70830;42.290;-71.354;2023-09-30T10:39:58;41.38;;;18.13;;
81378;SDS011;70830;42.290;-71.354;2023-09-30T10:42:46;33.22;;;17.15;;
81378;SDS011;70830;42.290;-71.354;2023-09-30T10:56:17;33.72;;;16.00;;
81378;SDS011;70830;42.290;-71.354;2023-09-30T10:58:50;31.33;;;18.13;;
81378;SDS011;70830;42.290;-71.354;2023-09-30T11:01:18;40.67;;;17.08;;
81378;SDS011;70830;42.290;-71.354;2023-09-30T11:03:46;27.77;;;16.30;;
81378;SDS011;70830;42.290;-71.354;2023-09-30T11:06:15;35.53;;;17.23;;
81378;SDS011;70830;42.290;-71.354;2023-09-30T11:08:49;29.15;;;16.80;;
81378;SDS011;70830;42.290;-71.354;2023-09-30T11:11:16;32.30;;;16.15;;
81378;SDS011;70830;42.290;-71.354;2023-09-30T11:13:42;32.10;;;17.55;;
81378;SDS011;70830;42.290;-71.354;2023-09-30T11:16:08;34.35;;;16.80;;
81378;SDS011;70830;42.290;-71.354;2023-09-30T11:18:34;27.27;;;15.88;;
81378;SDS011;70830;42.290;-71.354;2023-09-30T11:21:05;33.15;;;17.05;;
81378;SDS011;70830;42.290;-71.354;2023-09-30T11:23:36;35.17;;;16.15;;
81378;SDS011;70830;42.290;-71.354;2023-09-30T11:26:03;33.88;;;16.83;;
81378;SDS011;70830;42.290;-71.354;2023-09-30T11:28:37;29.83;;;17.05;;
81378;SDS011;70830;42.290;-71.354;2023-09-30T11:31:06;32.45;;;16.52;;
81378;SDS011;70830;42.290;-71.354;2023-09-30T11:33:52;34.35;;;17.80;;
81378;SDS011;70830;42.290;-71.354;2023-09-30T11:36:21;31.02;;;17.20;;
81378;SDS011;70830;42.290;-71.354;2023-09-30T11:38:48;32.95;;;18.23;;
81378;SDS011;70830;42.290;-71.354;2023-09-30T11:41:16;31.50;;;17.20;;
81378;SDS011;70830;42.290;-71.354;2023-09-30T11:44:00;32.13;;;18.90;;
81378;SDS011;70830;42.290;-71.354;2023-09-30T11:46:49;30.20;;;17.30;;
81378;SDS011;70830;42.290;-71.354;2023-09-30T11:49:45;30.40;;;16.77;;
81378;SDS011;70830;42.290;-71.354;2023-09-30T11:52:25;34.97;;;18.58;;
81378;SDS011;70830;42.290;-71.354;2023-09-30T11:54:52;28.25;;;16.00;;
81378;SDS011;70830;42.290;-71.354;2023-09-30T11:57:18;32.30;;;17.05;;
81378;SDS011;70830;42.290;-71.354;2023-09-30T11:59:45;33.92;;;17.02;;
81378;SDS011;70830;42.290;-71.354;2023-09-30T12:02:12;30.13;;;15.75;;
81378;SDS011;70830;42.290;-71.354;2023-09-30T12:04:45;28.27;;;16.05;;
81378;SDS011;70830;42.290;-71.354;2023-09-30T12:07:14;31.05;;;17.70;;
81378;SDS011;70830;42.290;-71.354;2023-09-30T12:09:40;29.65;;;16.95;;
81378;SDS011;70830;42.290;-71.354;2023-09-30T12:12:06;31.63;;;16.83;;
81378;SDS011;70830;42.290;-71.354;2023-09-30T12:14:39;24.52;;;14.88;;
81378;SDS011;70830;42.290;-71.354;2023-09-30T12:17:05;32.28;;;17.08;;
81378;SDS011;70830;42.290;-71.354;2023-09-30T12:19:35;25.58;;;15.80;;
81378;SDS011;70830;42.290;-71.354;2023-09-30T12:22:02;28.02;;;15.63;;
81378;SDS011;70830;42.290;-71.354;2023-09-30T12:24:28;31.05;;;16.40;;
81378;SDS011;70830;42.290;-71.354;2023-09-30T12:26:54;29.10;;;15.73;;
81378;SDS011;70830;42.290;-71.354;2023-09-30T12:29:21;32.80;;;16.73;;
81378;SDS011;70830;42.290;-71.354;2023-09-30T12:31:48;32.83;;;16.85;;
81378;SDS011;70830;42.290;-71.354;2023-09-30T12:34:15;25.58;;;15.90;;
81378;SDS011;70830;42.290;-71.354;2023-09-30T12:36:42;22.33;;;15.20;;
81378;SDS011;70830;42.290;-71.354;2023-09-30T12:39:09;27.15;;;16.10;;
81378;SDS011;70830;42.290;-71.354;2023-09-30T12:41:36;27.92;;;15.73;;
81378;SDS011;70830;42.290;-71.354;2023-09-30T12:44:06;25.80;;;15.30;;
81378;SDS011;70830;42.290;-71.354;2023-09-30T12:46:33;26.65;;;16.27;;
81378;SDS011;70830;42.290;-71.354;2023-09-30T12:49:00;25.75;;;15.20;;
81378;SDS011;70830;42.290;-71.354;2023-09-30T12:51:27;27.73;;;15.68;;
81378;SDS011;70830;42.290;-71.354;2023-09-30T12:53:54;21.98;;;14.80;;
81378;SDS011;70830;42.290;-71.354;2023-09-30T12:56:19;22.20;;;13.88;;
81378;SDS011;70830;42.290;-71.354;2023-09-30T12:58:46;24.90;;;14.68;;
81378;SDS011;70830;42.290;-71.354;2023-09-30T13:01:12;30.77;;;15.52;;
81378;SDS011;70830;42.290;-71.354;2023-09-30T13:03:39;23.73;;;14.85;;
81378;SDS011;70830;42.290;-71.354;2023-09-30T13:06:05;23.45;;;14.45;;
81378;SDS011;70830;42.290;-71.354;2023-09-30T13:08:31;22.65;;;15.32;;
81378;SDS011;70830;42.290;-71.354;2023-09-30T13:11:05;24.08;;;16.42;;
81378;SDS011;70830;42.290;-71.354;2023-09-30T13:13:31;25.58;;;14.60;;
81378;SDS011;70830;42.290;-71.354;2023-09-30T13:16:03;26.38;;;14.65;;
81378;SDS011;70830;42.290;-71.354;2023-09-30T13:18:35;23.88;;;13.75;;
81378;SDS011;70830;42.290;-71.354;2023-09-30T13:21:01;21.75;;;14.80;;
81378;SDS011;70830;42.290;-71.354;2023-09-30T13:23:29;21.88;;;13.90;;
81378;SDS011;70830;42.290;-71.354;2023-09-30T13:25:55;23.42;;;14.32;;
81378;SDS011;70830;42.290;-71.354;2023-09-30T13:28:21;21.65;;;15.05;;
81378;SDS011;70830;42.290;-71.354;2023-09-30T13:30:47;25.23;;;13.95;;
81378;SDS011;70830;42.290;-71.354;2023-09-30T13:33:13;24.75;;;14.20;;
81378;SDS011;70830;42.290;-71.354;2023-09-30T13:35:39;24.08;;;14.30;;
81378;SDS011;70830;42.290;-71.354;2023-09-30T13:38:05;23.52;;;15.45;;
81378;SDS011;70830;42.290;-71.354;2023-09-30T13:40:31;24.02;;;14.77;;
81378;SDS011;70830;42.290;-71.354;2023-09-30T13:42:56;26.52;;;15.30;;
81378;SDS011;70830;42.290;-71.354;2023-09-30T13:45:24;28.85;;;14.93;;
81378;SDS011;70830;42.290;-71.354;2023-09-30T13:47:50;25.60;;;15.35;;
81378;SDS011;70830;42.290;-71.354;2023-09-30T13:50:15;26.92;;;15.15;;
81378;SDS011;70830;42.290;-71.354;2023-09-30T13:52:41;29.73;;;16.10;;
81378;SDS011;70830;42.290;-71.354;2023-09-30T13:55:07;27.23;;;15.82;;
81378;SDS011;70830;42.290;-71.354;2023-09-30T13:57:33;27.17;;;14.45;;
81378;SDS011;70830;42.290;-71.354;2023-09-30T14:00:01;23.20;;;15.20;;
81378;SDS011;70830;42.290;-71.354;2023-09-30T14:02:29;22.92;;;15.35;;
81378;SDS011;70830;42.290;-71.354;2023-09-30T14:04:55;24.13;;;14.32;;
81378;SDS011;70830;42.290;-71.354;2023-09-30T14:07:21;30.10;;;16.42;;
81378;SDS011;70830;42.290;-71.354;2023-09-30T14:09:47;31.55;;;16.20;;
81378;SDS011;70830;42.290;-71.354;2023-09-30T14:12:12;24.48;;;14.15;;
81378;SDS011;70830;42.290;-71.354;2023-09-30T14:14:38;25.23;;;14.35;;
81378;SDS011;70830;42.290;-71.354;2023-09-30T14:17:04;27.42;;;14.70;;
81378;SDS011;70830;42.290;-71.354;2023-09-30T14:19:35;23.02;;;14.98;;
81378;SDS011;70830;42.290;-71.354;2023-09-30T14:22:02;25.15;;;15.60;;